sensor_id;sensor_type;location;lat;lon;timestamp;pressure;altitude;pressure_sealevel;temperature;humidity
60832;BME280;46665;51.558;-0.448;2023-05-22T00:01:31;101549.81;;;12.77;72.73
60832;BME280;46665;51.558;-0.448;2023-05-22T00:03:57;101552.78;;;12.80;72.57
60832;BME280;46665;51.558;-0.448;2023-05-22T00:06:22;101542.69;;;12.81;72.02
60832;BME280;46665;51.558;-0.448;2023-05-22T00:08:48;101541.88;;;12.80;72.47
60832;BME280;46665;51.558;-0.448;2023-05-22T00:11:14;101540.78;;;12.82;72.61
60832;BME280;46665;51.558;-0.448;2023-05-22T00:13:39;101536.16;;;12.82;72.32
60832;BME280;46665;51.558;-0.448;2023-05-22T00:16:05;101531.25;;;12.79;72.99
60832;BME280;46665;51.558;-0.448;2023-05-22T00:18:30;101539.69;;;12.77;72.60
60832;BME280;46665;51.558;-0.448;2023-05-22T00:20:56;101533.97;;;12.74;73.99
60832;BME280;46665;51.558;-0.448;2023-05-22T00:23:23;101528.78;;;12.62;75.06
60832;BME280;46665;51.558;-0.448;2023-05-22T00:25:48;101529.88;;;12.56;73.73
60832;BME280;46665;51.558;-0.448;2023-05-22T00:28:14;101524.69;;;12.49;74.28
60832;BME280;46665;51.558;-0.448;2023-05-22T00:30:40;101526.31;;;12.40;76.13
60832;BME280;46665;51.558;-0.448;2023-05-22T00:33:05;101520.03;;;12.29;77.52
60832;BME280;46665;51.558;-0.448;2023-05-22T00:35:32;101523.28;;;12.21;78.31
60832;BME280;46665;51.558;-0.448;2023-05-22T00:37:57;101530.38;;;12.22;78.13
60832;BME280;46665;51.558;-0.448;2023-05-22T00:40:23;101522.72;;;12.19;78.10
60832;BME280;46665;51.558;-0.448;2023-05-22T00:42:48;101518.09;;;12.20;77.53
60832;BME280;46665;51.558;-0.448;2023-05-22T00:45:14;101522.19;;;12.17;79.39
60832;BME280;46665;51.558;-0.448;2023-05-22T00:47:40;101515.91;;;12.17;77.96
60832;BME280;46665;51.558;-0.448;2023-05-22T00:50:06;101515.66;;;12.13;79.15
60832;BME280;46665;51.558;-0.448;2023-05-22T00:52:34;101511.25;;;12.12;78.80
60832;BME280;46665;51.558;-0.448;2023-05-22T00:55:02;101513.44;;;12.10;79.44
60832;BME280;46665;51.558;-0.448;2023-05-22T00:57:29;101513.44;;;12.10;79.69
60832;BME280;46665;51.558;-0.448;2023-05-22T00:59:55;101509.06;;;12.09;80.12
60832;BME280;46665;51.558;-0.448;2023-05-22T01:02:22;101508.81;;;12.05;79.60
60832;BME280;46665;51.558;-0.448;2023-05-22T01:04:47;101506.34;;;12.04;79.65
60832;BME280;46665;51.558;-0.448;2023-05-22T01:07:13;101506.59;;;12.07;79.76
60832;BME280;46665;51.558;-0.448;2023-05-22T01:09:40;101508.81;;;12.16;79.03
60832;BME280;46665;51.558;-0.448;2023-05-22T01:15:46;101504.75;;;12.23;79.20
60832;BME280;46665;51.558;-0.448;2023-05-22T01:18:00;101509.38;;;12.33;77.19
60832;BME280;46665;51.558;-0.448;2023-05-22T01:26:11;101499.84;;;12.41;77.62
60832;BME280;46665;51.558;-0.448;2023-05-22T01:29:05;101497.63;;;12.38;76.79
60832;BME280;46665;51.558;-0.448;2023-05-22T01:31:36;101503.94;;;12.43;76.54
60832;BME280;46665;51.558;-0.448;2023-05-22T01:34:03;101496.28;;;12.45;75.57
60832;BME280;46665;51.558;-0.448;2023-05-22T01:36:32;101501.22;;;12.43;76.31
60832;BME280;46665;51.558;-0.448;2023-05-22T01:38:59;101493.03;;;12.43;76.50
60832;BME280;46665;51.558;-0.448;2023-05-22T01:41:28;101493.03;;;12.43;76.39
60832;BME280;46665;51.558;-0.448;2023-05-22T01:43:55;101490.81;;;12.35;76.31
60832;BME280;46665;51.558;-0.448;2023-05-22T01:46:20;101489.19;;;12.34;76.61
60832;BME280;46665;51.558;-0.448;2023-05-22T01:48:46;101485.66;;;12.33;76.91
60832;BME280;46665;51.558;-0.448;2023-05-22T01:51:20;101479.63;;;12.31;75.94
60832;BME280;46665;51.558;-0.448;2023-05-22T01:54:03;101484.28;;;12.31;76.64
60832;BME280;46665;51.558;-0.448;2023-05-22T01:56:41;101486.72;;;12.32;76.75
60832;BME280;46665;51.558;-0.448;2023-05-22T01:59:25;101491.91;;;12.34;76.79
60832;BME280;46665;51.558;-0.448;2023-05-22T02:01:57;101484.28;;;12.36;76.91
60832;BME280;46665;51.558;-0.448;2023-05-22T02:04:25;101481.81;;;12.34;77.00
60832;BME280;46665;51.558;-0.448;2023-05-22T02:06:53;101484.81;;;12.28;76.79
60832;BME280;46665;51.558;-0.448;2023-05-22T02:09:20;101470.91;;;12.29;77.37
60832;BME280;46665;51.558;-0.448;2023-05-22T02:11:47;101477.47;;;12.28;77.26
60832;BME280;46665;51.558;-0.448;2023-05-22T02:14:13;101482.06;;;12.28;77.85
60832;BME280;46665;51.558;-0.448;2023-05-22T02:16:40;101476.34;;;12.24;78.45
60832;BME280;46665;51.558;-0.448;2023-05-22T02:19:06;101473.06;;;12.17;79.15
60832;BME280;46665;51.558;-0.448;2023-05-22T02:21:33;101475.25;;;12.15;80.13
60832;BME280;46665;51.558;-0.448;2023-05-22T02:23:58;101473.34;;;12.16;78.84
60832;BME280;46665;51.558;-0.448;2023-05-22T02:26:24;101469.53;;;12.17;79.95
60832;BME280;46665;51.558;-0.448;2023-05-22T02:28:51;101473.06;;;12.17;80.34
60832;BME280;46665;51.558;-0.448;2023-05-22T02:31:16;101466.81;;;12.17;80.67
60832;BME280;46665;51.558;-0.448;2023-05-22T02:33:42;101468.16;;;12.19;81.04
60832;BME280;46665;51.558;-0.448;2023-05-22T02:36:08;101472.25;;;12.17;81.47
60832;BME280;46665;51.558;-0.448;2023-05-22T02:38:35;101479.06;;;12.19;81.44
60832;BME280;46665;51.558;-0.448;2023-05-22T02:41:01;101479.34;;;12.18;81.99
60832;BME280;46665;51.558;-0.448;2023-05-22T02:43:26;101481.25;;;12.17;81.24
60832;BME280;46665;51.558;-0.448;2023-05-22T02:45:52;101492.16;;;12.22;81.02
60832;BME280;46665;51.558;-0.448;2023-05-22T02:48:17;101483.97;;;12.17;81.24
60832;BME280;46665;51.558;-0.448;2023-05-22T02:50:43;101481.81;;;12.14;82.41
60832;BME280;46665;51.558;-0.448;2023-05-22T02:53:08;101490.00;;;12.19;81.85
60832;BME280;46665;51.558;-0.448;2023-05-22T02:55:34;101489.44;;;12.17;83.21
60832;BME280;46665;51.558;-0.448;2023-05-22T02:58:00;101494.09;;;12.17;83.53
60832;BME280;46665;51.558;-0.448;2023-05-22T03:00:26;101487.25;;;12.09;82.83
60832;BME280;46665;51.558;-0.448;2023-05-22T03:02:51;101474.72;;;12.03;83.19
60832;BME280;46665;51.558;-0.448;2023-05-22T03:05:17;101475.53;;;12.03;83.69
60832;BME280;46665;51.558;-0.448;2023-05-22T03:07:43;101471.13;;;11.92;83.54
60832;BME280;46665;51.558;-0.448;2023-05-22T03:10:09;101479.03;;;11.93;83.77
60832;BME280;46665;51.558;-0.448;2023-05-22T03:12:34;101476.88;;;11.90;85.83
60832;BME280;46665;51.558;-0.448;2023-05-22T03:14:59;101472.78;;;11.88;86.27
60832;BME280;46665;51.558;-0.448;2023-05-22T03:17:25;101467.03;;;11.89;85.68
60832;BME280;46665;51.558;-0.448;2023-05-22T03:19:50;101462.38;;;11.90;85.04
60832;BME280;46665;51.558;-0.448;2023-05-22T03:22:16;101461.00;;;11.87;85.88
60832;BME280;46665;51.558;-0.448;2023-05-22T03:24:42;101465.34;;;11.83;85.92
60832;BME280;46665;51.558;-0.448;2023-05-22T03:27:08;101463.75;;;11.87;85.72
60832;BME280;46665;51.558;-0.448;2023-05-22T03:29:34;101465.66;;;11.87;84.74
60832;BME280;46665;51.558;-0.448;2023-05-22T03:32:00;101468.09;;;11.83;85.84
60832;BME280;46665;51.558;-0.448;2023-05-22T03:34:27;101459.09;;;11.83;86.02
60832;BME280;46665;51.558;-0.448;2023-05-22T03:36:54;101464.25;;;11.84;85.91
60832;BME280;46665;51.558;-0.448;2023-05-22T03:39:22;101463.69;;;11.77;86.51
60832;BME280;46665;51.558;-0.448;2023-05-22T03:41:47;101457.72;;;11.75;86.27
60832;BME280;46665;51.558;-0.448;2023-05-22T03:44:12;101470.22;;;11.71;87.08
60832;BME280;46665;51.558;-0.448;2023-05-22T03:46:38;101461.50;;;11.74;87.55
60832;BME280;46665;51.558;-0.448;2023-05-22T03:49:03;101454.97;;;11.70;87.12
60832;BME280;46665;51.558;-0.448;2023-05-22T03:51:29;101453.06;;;11.70;87.05
60832;BME280;46665;51.558;-0.448;2023-05-22T03:53:55;101448.16;;;11.67;87.36
60832;BME280;46665;51.558;-0.448;2023-05-22T03:56:21;101447.28;;;11.62;88.02
60832;BME280;46665;51.558;-0.448;2023-05-22T03:58:46;101454.66;;;11.61;88.39
60832;BME280;46665;51.558;-0.448;2023-05-22T04:01:11;101453.56;;;11.57;89.33
60832;BME280;46665;51.558;-0.448;2023-05-22T04:03:38;101460.38;;;11.55;89.97
60832;BME280;46665;51.558;-0.448;2023-05-22T04:06:03;101456.28;;;11.52;90.21
60832;BME280;46665;51.558;-0.448;2023-05-22T04:08:29;101459.81;;;11.53;90.91
60832;BME280;46665;51.558;-0.448;2023-05-22T04:10:55;101453.28;;;11.54;90.89
60832;BME280;46665;51.558;-0.448;2023-05-22T04:13:20;101459.84;;;11.58;90.36
60832;BME280;46665;51.558;-0.448;2023-05-22T04:15:46;101460.09;;;11.61;90.05
60832;BME280;46665;51.558;-0.448;2023-05-22T04:18:12;101460.13;;;11.66;90.46
60832;BME280;46665;51.558;-0.448;2023-05-22T04:20:38;101458.22;;;11.67;89.98
60832;BME280;46665;51.558;-0.448;2023-05-22T04:23:03;101462.31;;;11.69;90.06
60832;BME280;46665;51.558;-0.448;2023-05-22T04:25:29;101468.06;;;11.73;89.48
60832;BME280;46665;51.558;-0.448;2023-05-22T04:27:55;101467.75;;;11.69;90.41
60832;BME280;46665;51.558;-0.448;2023-05-22T04:30:21;101469.13;;;11.72;90.37
60832;BME280;46665;51.558;-0.448;2023-05-22T04:32:46;101461.50;;;11.69;90.38
60832;BME280;46665;51.558;-0.448;2023-05-22T04:35:12;101456.59;;;11.71;90.87
60832;BME280;46665;51.558;-0.448;2023-05-22T04:37:38;101462.84;;;11.66;90.01
60832;BME280;46665;51.558;-0.448;2023-05-22T04:40:10;101452.75;;;11.67;89.96
60832;BME280;46665;51.558;-0.448;2023-05-22T04:42:36;101454.66;;;11.66;90.05
60832;BME280;46665;51.558;-0.448;2023-05-22T04:45:03;101463.13;;;11.65;91.13
60832;BME280;46665;51.558;-0.448;2023-05-22T04:47:29;101463.66;;;11.67;90.72
60832;BME280;46665;51.558;-0.448;2023-05-22T04:49:56;101455.22;;;11.63;90.47
60832;BME280;46665;51.558;-0.448;2023-05-22T04:52:22;101466.94;;;11.64;89.78
60832;BME280;46665;51.558;-0.448;2023-05-22T04:54:48;101461.22;;;11.65;90.25
60832;BME280;46665;51.558;-0.448;2023-05-22T04:57:15;101459.88;;;11.68;90.94
60832;BME280;46665;51.558;-0.448;2023-05-22T04:59:41;101464.22;;;11.69;91.18
60832;BME280;46665;51.558;-0.448;2023-05-22T05:02:06;101469.66;;;11.69;91.22
60832;BME280;46665;51.558;-0.448;2023-05-22T05:04:32;101471.59;;;11.68;90.55
60832;BME280;46665;51.558;-0.448;2023-05-22T05:06:58;101476.22;;;11.68;90.56
60832;BME280;46665;51.558;-0.448;2023-05-22T05:09:23;101470.50;;;11.75;91.47
60832;BME280;46665;51.558;-0.448;2023-05-22T05:11:50;101472.44;;;11.79;91.44
60832;BME280;46665;51.558;-0.448;2023-05-22T05:14:16;101479.53;;;11.80;89.92
60832;BME280;46665;51.558;-0.448;2023-05-22T05:16:41;101475.44;;;11.78;89.41
60832;BME280;46665;51.558;-0.448;2023-05-22T05:19:07;101483.34;;;11.79;90.18
60832;BME280;46665;51.558;-0.448;2023-05-22T05:21:32;101480.06;;;11.82;89.65
60832;BME280;46665;51.558;-0.448;2023-05-22T05:23:58;101491.28;;;11.86;90.79
60832;BME280;46665;51.558;-0.448;2023-05-22T05:26:23;101490.50;;;11.90;90.18
60832;BME280;46665;51.558;-0.448;2023-05-22T05:28:49;101481.75;;;11.88;89.62
60832;BME280;46665;51.558;-0.448;2023-05-22T05:31:16;101479.84;;;11.89;89.98
60832;BME280;46665;51.558;-0.448;2023-05-22T05:33:42;101485.59;;;11.92;88.87
60832;BME280;46665;51.558;-0.448;2023-05-22T05:36:07;101491.88;;;12.03;89.96
60832;BME280;46665;51.558;-0.448;2023-05-22T05:38:33;101493.81;;;12.13;90.07
60832;BME280;46665;51.558;-0.448;2023-05-22T05:40:58;101492.47;;;12.21;87.10
60832;BME280;46665;51.558;-0.448;2023-05-22T05:43:23;101488.63;;;12.32;86.57
60832;BME280;46665;51.558;-0.448;2023-05-22T05:45:49;101503.41;;;12.46;85.96
60832;BME280;46665;51.558;-0.448;2023-05-22T05:48:15;101496.00;;;12.52;84.36
60832;BME280;46665;51.558;-0.448;2023-05-22T05:50:41;101482.09;;;12.53;84.00
60832;BME280;46665;51.558;-0.448;2023-05-22T05:53:07;101492.19;;;12.58;84.28
60832;BME280;46665;51.558;-0.448;2023-05-22T05:55:32;101488.09;;;12.55;83.44
60832;BME280;46665;51.558;-0.448;2023-05-22T05:57:58;101490.00;;;12.55;83.30
60832;BME280;46665;51.558;-0.448;2023-05-22T06:00:24;101497.13;;;12.56;83.56
60832;BME280;46665;51.558;-0.448;2023-05-22T06:02:50;101487.81;;;12.52;82.41
60832;BME280;46665;51.558;-0.448;2023-05-22T06:05:15;101492.47;;;12.56;83.22
60832;BME280;46665;51.558;-0.448;2023-05-22T06:07:43;101499.00;;;12.55;82.81
60832;BME280;46665;51.558;-0.448;2023-05-22T06:10:10;101492.19;;;12.53;83.16
60832;BME280;46665;51.558;-0.448;2023-05-22T06:12:36;101493.03;;;12.53;83.08
60832;BME280;46665;51.558;-0.448;2023-05-22T06:15:03;101502.03;;;12.49;82.47
60832;BME280;46665;51.558;-0.448;2023-05-22T06:17:29;101500.13;;;12.49;83.74
60832;BME280;46665;51.558;-0.448;2023-05-22T06:19:55;101510.22;;;12.54;83.12
60832;BME280;46665;51.558;-0.448;2023-05-22T06:22:23;101502.56;;;12.56;82.77
60832;BME280;46665;51.558;-0.448;2023-05-22T06:24:52;101505.31;;;12.56;83.46
60832;BME280;46665;51.558;-0.448;2023-05-22T06:27:21;101499.28;;;12.59;82.94
60832;BME280;46665;51.558;-0.448;2023-05-22T06:29:47;101507.75;;;12.63;83.42
60832;BME280;46665;51.558;-0.448;2023-05-22T06:32:13;101510.47;;;12.68;83.77
60832;BME280;46665;51.558;-0.448;2023-05-22T06:34:39;101504.19;;;12.67;83.60
60832;BME280;46665;51.558;-0.448;2023-05-22T06:37:05;101514.31;;;12.72;83.08
60832;BME280;46665;51.558;-0.448;2023-05-22T06:39:30;101520.56;;;12.77;83.24
60832;BME280;46665;51.558;-0.448;2023-05-22T06:41:56;101524.94;;;12.84;83.29
60832;BME280;46665;51.558;-0.448;2023-05-22T06:44:21;101520.00;;;12.86;82.42
60832;BME280;46665;51.558;-0.448;2023-05-22T06:46:46;101521.66;;;12.92;82.21
60832;BME280;46665;51.558;-0.448;2023-05-22T06:49:13;101525.75;;;12.99;81.64
60832;BME280;46665;51.558;-0.448;2023-05-22T06:51:39;101522.19;;;13.04;79.72
60832;BME280;46665;51.558;-0.448;2023-05-22T06:54:04;101533.63;;;13.06;78.84
60832;BME280;46665;51.558;-0.448;2023-05-22T06:56:31;101538.03;;;13.02;79.30
60832;BME280;46665;51.558;-0.448;2023-05-22T06:58:58;101539.66;;;13.03;79.29
60832;BME280;46665;51.558;-0.448;2023-05-22T07:01:24;101538.56;;;13.09;80.12
60832;BME280;46665;51.558;-0.448;2023-05-22T07:03:50;101537.22;;;13.12;79.28
60832;BME280;46665;51.558;-0.448;2023-05-22T07:06:15;101532.25;;;13.19;80.20
60832;BME280;46665;51.558;-0.448;2023-05-22T07:08:40;101548.94;;;13.28;80.41
60832;BME280;46665;51.558;-0.448;2023-05-22T07:11:06;101546.22;;;13.28;80.57
60832;BME280;46665;51.558;-0.448;2023-05-22T07:13:32;101547.28;;;13.32;79.13
60832;BME280;46665;51.558;-0.448;2023-05-22T07:15:58;101557.38;;;13.36;79.09
60832;BME280;46665;51.558;-0.448;2023-05-22T07:18:23;101557.13;;;13.38;79.15
60832;BME280;46665;51.558;-0.448;2023-05-22T07:20:49;101569.16;;;13.42;77.89
60832;BME280;46665;51.558;-0.448;2023-05-22T07:23:14;101556.00;;;13.44;76.82
60832;BME280;46665;51.558;-0.448;2023-05-22T07:25:41;101557.09;;;13.48;78.38
60832;BME280;46665;51.558;-0.448;2023-05-22T07:28:06;101568.56;;;13.55;77.10
60832;BME280;46665;51.558;-0.448;2023-05-22T07:30:37;101564.16;;;13.59;76.21
60832;BME280;46665;51.558;-0.448;2023-05-22T07:33:05;101572.88;;;13.66;76.24
60832;BME280;46665;51.558;-0.448;2023-05-22T07:35:31;101574.53;;;13.68;75.84
60832;BME280;46665;51.558;-0.448;2023-05-22T07:37:57;101583.56;;;13.63;74.67
60832;BME280;46665;51.558;-0.448;2023-05-22T07:40:22;101584.94;;;13.65;75.64
60832;BME280;46665;51.558;-0.448;2023-05-22T07:42:47;101587.94;;;13.64;76.44
60832;BME280;46665;51.558;-0.448;2023-05-22T07:45:13;101592.59;;;13.58;77.62
60832;BME280;46665;51.558;-0.448;2023-05-22T07:47:38;101586.88;;;13.60;76.88
60832;BME280;46665;51.558;-0.448;2023-05-22T07:50:04;101590.13;;;13.62;76.96
60832;BME280;46665;51.558;-0.448;2023-05-22T07:52:30;101581.41;;;13.60;76.69
60832;BME280;46665;51.558;-0.448;2023-05-22T07:54:56;101590.97;;;13.57;77.98
60832;BME280;46665;51.558;-0.448;2023-05-22T07:57:22;101596.13;;;13.64;76.36
60832;BME280;46665;51.558;-0.448;2023-05-22T07:59:47;101597.22;;;13.68;76.46
60832;BME280;46665;51.558;-0.448;2023-05-22T08:02:13;101601.88;;;13.68;76.80
60832;BME280;46665;51.558;-0.448;2023-05-22T08:04:39;101607.34;;;13.73;76.95
60832;BME280;46665;51.558;-0.448;2023-05-22T08:07:05;101611.97;;;13.72;76.71
60832;BME280;46665;51.558;-0.448;2023-05-22T08:09:30;101607.06;;;13.69;76.51
60832;BME280;46665;51.558;-0.448;2023-05-22T08:11:56;101611.16;;;13.72;76.92
60832;BME280;46665;51.558;-0.448;2023-05-22T08:14:21;101604.63;;;13.62;77.51
60832;BME280;46665;51.558;-0.448;2023-05-22T08:16:47;101611.19;;;13.56;77.69
60832;BME280;46665;51.558;-0.448;2023-05-22T08:19:13;101615.59;;;13.52;76.78
60832;BME280;46665;51.558;-0.448;2023-05-22T08:21:41;101622.16;;;13.51;76.41
60832;BME280;46665;51.558;-0.448;2023-05-22T08:24:07;101616.69;;;13.46;77.49
60832;BME280;46665;51.558;-0.448;2023-05-22T08:26:32;101626.25;;;13.43;77.20
60832;BME280;46665;51.558;-0.448;2023-05-22T08:28:58;101618.34;;;13.32;77.09
60832;BME280;46665;51.558;-0.448;2023-05-22T08:31:24;101614.28;;;13.34;76.67
60832;BME280;46665;51.558;-0.448;2023-05-22T08:33:49;101620.25;;;13.26;75.50
60832;BME280;46665;51.558;-0.448;2023-05-22T08:36:15;101611.25;;;13.31;76.92
60832;BME280;46665;51.558;-0.448;2023-05-22T08:38:40;101614.53;;;13.38;76.41
60832;BME280;46665;51.558;-0.448;2023-05-22T08:41:07;101623.28;;;13.45;75.62
60832;BME280;46665;51.558;-0.448;2023-05-22T08:43:34;101613.13;;;13.51;74.54
60832;BME280;46665;51.558;-0.448;2023-05-22T08:46:04;101618.03;;;13.54;74.26
60832;BME280;46665;51.558;-0.448;2023-05-22T08:48:31;101617.22;;;13.58;74.43
60832;BME280;46665;51.558;-0.448;2023-05-22T08:51:03;101613.91;;;13.61;74.67
60832;BME280;46665;51.558;-0.448;2023-05-22T08:53:32;101608.97;;;13.74;75.40
60832;BME280;46665;51.558;-0.448;2023-05-22T08:55:58;101607.84;;;13.80;74.44
60832;BME280;46665;51.558;-0.448;2023-05-22T08:58:25;101610.25;;;13.92;73.08
60832;BME280;46665;51.558;-0.448;2023-05-22T09:00:52;101603.91;;;14.06;73.02
60832;BME280;46665;51.558;-0.448;2023-05-22T09:03:18;101610.94;;;14.18;71.36
60832;BME280;46665;51.558;-0.448;2023-05-22T09:05:45;101604.91;;;14.26;70.01
60832;BME280;46665;51.558;-0.448;2023-05-22T09:08:11;101610.09;;;14.27;68.53
60832;BME280;46665;51.558;-0.448;2023-05-22T09:10:36;101598.28;;;14.32;67.45
60832;BME280;46665;51.558;-0.448;2023-05-22T09:13:05;101592.50;;;14.39;68.07
60832;BME280;46665;51.558;-0.448;2023-05-22T09:15:34;101604.78;;;14.46;67.89
60832;BME280;46665;51.558;-0.448;2023-05-22T09:18:01;101607.22;;;14.53;67.60
60832;BME280;46665;51.558;-0.448;2023-05-22T09:20:27;101601.44;;;14.60;67.53
60832;BME280;46665;51.558;-0.448;2023-05-22T09:22:52;101604.19;;;14.55;67.13
60832;BME280;46665;51.558;-0.448;2023-05-22T09:25:19;101611.00;;;14.62;67.30
60832;BME280;46665;51.558;-0.448;2023-05-22T09:27:48;101610.13;;;14.72;67.64
60832;BME280;46665;51.558;-0.448;2023-05-22T09:30:17;101611.72;;;14.73;66.97
60832;BME280;46665;51.558;-0.448;2023-05-22T09:32:47;101597.22;;;14.72;66.95
60832;BME280;46665;51.558;-0.448;2023-05-22T09:35:13;101612.59;;;14.68;66.44
60832;BME280;46665;51.558;-0.448;2023-05-22T09:37:39;101610.16;;;14.67;67.09
60832;BME280;46665;51.558;-0.448;2023-05-22T09:40:05;101618.91;;;14.69;67.39
60832;BME280;46665;51.558;-0.448;2023-05-22T09:42:32;101614.56;;;14.63;67.82
60832;BME280;46665;51.558;-0.448;2023-05-22T09:45:05;101607.75;;;14.55;68.79
60832;BME280;46665;51.558;-0.448;2023-05-22T09:47:32;101609.69;;;14.49;70.17
60832;BME280;46665;51.558;-0.448;2023-05-22T09:50:02;101608.28;;;14.57;70.44
60832;BME280;46665;51.558;-0.448;2023-05-22T09:52:34;101608.03;;;14.59;69.07
60832;BME280;46665;51.558;-0.448;2023-05-22T09:55:05;101609.09;;;14.52;68.18
60832;BME280;46665;51.558;-0.448;2023-05-22T09:57:32;101608.06;;;14.48;69.37
60832;BME280;46665;51.558;-0.448;2023-05-22T10:00:04;101597.63;;;14.50;68.41
60832;BME280;46665;51.558;-0.448;2023-05-22T10:02:36;101598.47;;;14.56;69.32
60832;BME280;46665;51.558;-0.448;2023-05-22T10:05:05;101605.25;;;14.64;69.20
60832;BME280;46665;51.558;-0.448;2023-05-22T10:07:35;101611.78;;;14.68;68.42
60832;BME280;46665;51.558;-0.448;2023-05-22T10:10:07;101603.81;;;14.71;68.51
60832;BME280;46665;51.558;-0.448;2023-05-22T10:12:40;101610.69;;;14.69;68.66
60832;BME280;46665;51.558;-0.448;2023-05-22T10:15:08;101606.06;;;14.64;68.79
60832;BME280;46665;51.558;-0.448;2023-05-22T10:17:35;101614.81;;;14.66;68.76
60832;BME280;46665;51.558;-0.448;2023-05-22T10:20:02;101616.22;;;14.64;69.15
60832;BME280;46665;51.558;-0.448;2023-05-22T10:22:34;101618.09;;;14.63;67.97
60832;BME280;46665;51.558;-0.448;2023-05-22T10:25:01;101620.59;;;14.60;66.79
60832;BME280;46665;51.558;-0.448;2023-05-22T10:27:27;101632.38;;;14.60;66.91
60832;BME280;46665;51.558;-0.448;2023-05-22T10:32:37;101633.72;;;14.63;66.09
60832;BME280;46665;51.558;-0.448;2023-05-22T10:35:14;101630.09;;;14.72;66.22
60832;BME280;46665;51.558;-0.448;2023-05-22T10:40:23;101627.59;;;14.76;67.99
60832;BME280;46665;51.558;-0.448;2023-05-22T10:42:56;101640.97;;;14.83;67.91
60832;BME280;46665;51.558;-0.448;2023-05-22T10:45:24;101635.78;;;14.86;68.04
60832;BME280;46665;51.558;-0.448;2023-05-22T10:48:07;101637.31;;;14.98;68.40
60832;BME280;46665;51.558;-0.448;2023-05-22T10:50:34;101631.75;;;15.08;67.81
60832;BME280;46665;51.558;-0.448;2023-05-22T10:56:13;101630.38;;;15.39;67.13
60832;BME280;46665;51.558;-0.448;2023-05-22T10:58:42;101630.25;;;15.50;66.96
60832;BME280;46665;51.558;-0.448;2023-05-22T11:01:18;101635.34;;;15.61;65.43
60832;BME280;46665;51.558;-0.448;2023-05-22T11:12:15;101623.97;;;15.97;64.30
60832;BME280;46665;51.558;-0.448;2023-05-22T11:14:46;101636.06;;;15.96;63.06
60832;BME280;46665;51.558;-0.448;2023-05-22T11:17:11;101629.84;;;16.10;63.67
60832;BME280;46665;51.558;-0.448;2023-05-22T11:19:39;101626.63;;;16.27;62.39
60832;BME280;46665;51.558;-0.448;2023-05-22T11:22:06;101627.75;;;16.44;61.78
60832;BME280;46665;51.558;-0.448;2023-05-22T11:24:32;101621.75;;;16.61;60.62
60832;BME280;46665;51.558;-0.448;2023-05-22T11:27:04;101620.16;;;16.74;59.86
60832;BME280;46665;51.558;-0.448;2023-05-22T11:29:30;101625.28;;;17.00;58.43
60832;BME280;46665;51.558;-0.448;2023-05-22T11:31:57;101625.38;;;17.08;56.83
60832;BME280;46665;51.558;-0.448;2023-05-22T11:34:24;101615.53;;;17.21;58.29
60832;BME280;46665;51.558;-0.448;2023-05-22T11:36:51;101610.59;;;17.37;58.75
60832;BME280;46665;51.558;-0.448;2023-05-22T11:39:17;101615.50;;;17.40;56.26
60832;BME280;46665;51.558;-0.448;2023-05-22T11:41:42;101608.56;;;17.43;57.02
60832;BME280;46665;51.558;-0.448;2023-05-22T11:44:08;101614.78;;;17.35;55.70
60832;BME280;46665;51.558;-0.448;2023-05-22T11:46:33;101614.44;;;17.36;56.34
60832;BME280;46665;51.558;-0.448;2023-05-22T11:49:00;101610.91;;;17.49;55.23
60832;BME280;46665;51.558;-0.448;2023-05-22T11:51:27;101617.84;;;17.61;55.75
60832;BME280;46665;51.558;-0.448;2023-05-22T11:53:53;101622.41;;;17.51;54.81
60832;BME280;46665;51.558;-0.448;2023-05-22T11:56:19;101616.59;;;17.39;53.96
60832;BME280;46665;51.558;-0.448;2023-05-22T11:58:48;101620.38;;;17.43;54.50
60832;BME280;46665;51.558;-0.448;2023-05-22T12:01:14;101622.22;;;17.48;55.05
60832;BME280;46665;51.558;-0.448;2023-05-22T12:03:40;101612.53;;;17.50;53.37
60832;BME280;46665;51.558;-0.448;2023-05-22T12:06:06;101609.19;;;17.53;54.14
60832;BME280;46665;51.558;-0.448;2023-05-22T12:08:32;101620.78;;;17.64;54.13
60832;BME280;46665;51.558;-0.448;2023-05-22T12:10:58;101619.41;;;17.81;52.88
60832;BME280;46665;51.558;-0.448;2023-05-22T12:13:26;101617.06;;;18.02;53.44
60832;BME280;46665;51.558;-0.448;2023-05-22T12:15:53;101623.41;;;17.88;52.59
60832;BME280;46665;51.558;-0.448;2023-05-22T12:18:20;101629.31;;;17.95;52.15
60832;BME280;46665;51.558;-0.448;2023-05-22T12:20:46;101619.19;;;18.05;52.98
60832;BME280;46665;51.558;-0.448;2023-05-22T12:23:19;101631.75;;;18.11;52.56
60832;BME280;46665;51.558;-0.448;2023-05-22T12:25:45;101631.13;;;18.14;52.65
60832;BME280;46665;51.558;-0.448;2023-05-22T12:28:10;101642.53;;;18.21;52.22
60832;BME280;46665;51.558;-0.448;2023-05-22T12:30:40;101635.50;;;18.15;51.09
60832;BME280;46665;51.558;-0.448;2023-05-22T12:33:14;101620.84;;;18.06;51.38
60832;BME280;46665;51.558;-0.448;2023-05-22T12:35:40;101629.41;;;17.90;51.19
60832;BME280;46665;51.558;-0.448;2023-05-22T12:38:06;101629.28;;;17.82;52.71
60832;BME280;46665;51.558;-0.448;2023-05-22T12:40:31;101627.84;;;17.70;53.63
60832;BME280;46665;51.558;-0.448;2023-05-22T12:42:57;101634.97;;;17.58;53.51
60832;BME280;46665;51.558;-0.448;2023-05-22T12:45:22;101622.00;;;17.44;54.52
60832;BME280;46665;51.558;-0.448;2023-05-22T12:47:49;101631.22;;;17.21;54.95
60832;BME280;46665;51.558;-0.448;2023-05-22T12:50:14;101621.13;;;17.16;56.17
60832;BME280;46665;51.558;-0.448;2023-05-22T12:52:40;101641.59;;;17.10;55.66
60832;BME280;46665;51.558;-0.448;2023-05-22T12:55:06;101638.34;;;17.08;56.60
60832;BME280;46665;51.558;-0.448;2023-05-22T12:57:31;101633.22;;;17.01;57.02
60832;BME280;46665;51.558;-0.448;2023-05-22T12:59:57;101643.91;;;17.03;57.61
60832;BME280;46665;51.558;-0.448;2023-05-22T13:02:22;101648.69;;;16.97;58.02
60832;BME280;46665;51.558;-0.448;2023-05-22T13:04:48;101638.88;;;16.91;57.71